sensor_id;sensor_type;location;lat;lon;timestamp;P1;durP1;ratioP1;P2;durP2;ratioP2
3177;SDS011;38141;42.666;23.344;2024-03-02T00:00:38;34.37;;;17.20;;
3177;SDS011;38141;42.666;23.344;2024-03-02T00:03:05;35.17;;;17.33;;
3177;SDS011;38141;42.666;23.344;2024-03-02T00:05:34;33.37;;;17.23;;
3177;SDS011;38141;42.666;23.344;2024-03-02T00:08:03;42.53;;;18.87;;
3177;SDS011;38141;42.666;23.344;2024-03-02T00:10:35;32.10;;;17.07;;
3177;SDS011;38141;42.666;23.344;2024-03-02T00:13:05;30.20;;;18.30;;
3177;SDS011;38141;42.666;23.344;2024-03-02T00:15:44;33.33;;;17.10;;
3177;SDS011;38141;42.666;23.344;2024-03-02T00:18:14;34.50;;;18.13;;
3177;SDS011;38141;42.666;23.344;2024-03-02T00:20:44;33.73;;;16.90;;
3177;SDS011;38141;42.666;23.344;2024-03-02T00:23:14;45.83;;;19.10;;
3177;SDS011;38141;42.666;23.344;2024-03-02T00:25:43;39.77;;;18.30;;
3177;SDS011;38141;42.666;23.344;2024-03-02T00:30:37;35.03;;;18.30;;
3177;SDS011;38141;42.666;23.344;2024-03-02T00:33:18;31.53;;;16.70;;
3177;SDS011;38141;42.666;23.344;2024-03-02T00:35:46;30.90;;;16.23;;
3177;SDS011;38141;42.666;23.344;2024-03-02T00:38:14;38.00;;;18.90;;
3177;SDS011;38141;42.666;23.344;2024-03-02T00:40:41;34.60;;;17.47;;
3177;SDS011;38141;42.666;23.344;2024-03-02T00:43:11;38.60;;;19.10;;
3177;SDS011;38141;42.666;23.344;2024-03-02T00:46:10;33.83;;;17.37;;
3177;SDS011;38141;42.666;23.344;2024-03-02T00:48:38;32.53;;;16.90;;
3177;SDS011;38141;42.666;23.344;2024-03-02T00:51:05;38.67;;;18.27;;
3177;SDS011;38141;42.666;23.344;2024-03-02T00:53:33;36.47;;;19.10;;
3177;SDS011;38141;42.666;23.344;2024-03-02T00:56:00;37.13;;;18.80;;
3177;SDS011;38141;42.666;23.344;2024-03-02T00:58:28;35.97;;;17.27;;
3177;SDS011;38141;42.666;23.344;2024-03-02T01:00:55;29.67;;;15.53;;
3177;SDS011;38141;42.666;23.344;2024-03-02T01:03:24;28.00;;;15.47;;
3177;SDS011;38141;42.666;23.344;2024-03-02T01:05:51;30.43;;;17.00;;
3177;SDS011;38141;42.666;23.344;2024-03-02T01:08:18;35.83;;;16.87;;
3177;SDS011;38141;42.666;23.344;2024-03-02T01:10:45;27.77;;;16.50;;
3177;SDS011;38141;42.666;23.344;2024-03-02T01:13:12;28.53;;;15.47;;
3177;SDS011;38141;42.666;23.344;2024-03-02T01:15:39;28.67;;;15.43;;
3177;SDS011;38141;42.666;23.344;2024-03-02T01:18:06;28.93;;;15.67;;
3177;SDS011;38141;42.666;23.344;2024-03-02T01:20:35;32.13;;;19.03;;
3177;SDS011;38141;42.666;23.344;2024-03-02T01:23:02;30.77;;;15.30;;
3177;SDS011;38141;42.666;23.344;2024-03-02T01:25:29;38.80;;;17.33;;
3177;SDS011;38141;42.666;23.344;2024-03-02T01:27:56;29.83;;;16.63;;
3177;SDS011;38141;42.666;23.344;2024-03-02T01:30:23;28.40;;;15.00;;
3177;SDS011;38141;42.666;23.344;2024-03-02T01:32:50;26.33;;;15.33;;
3177;SDS011;38141;42.666;23.344;2024-03-02T01:35:17;31.70;;;17.50;;
3177;SDS011;38141;42.666;23.344;2024-03-02T01:37:45;33.73;;;17.20;;
3177;SDS011;38141;42.666;23.344;2024-03-02T01:40:12;33.50;;;17.20;;
3177;SDS011;38141;42.666;23.344;2024-03-02T01:42:40;38.80;;;18.73;;
3177;SDS011;38141;42.666;23.344;2024-03-02T01:45:07;33.30;;;16.77;;
3177;SDS011;38141;42.666;23.344;2024-03-02T01:47:35;30.07;;;16.90;;
3177;SDS011;38141;42.666;23.344;2024-03-02T01:50:02;29.63;;;15.87;;
3177;SDS011;38141;42.666;23.344;2024-03-02T01:52:29;34.27;;;17.03;;
3177;SDS011;38141;42.666;23.344;2024-03-02T01:54:58;36.00;;;17.40;;
3177;SDS011;38141;42.666;23.344;2024-03-02T01:57:25;32.93;;;17.50;;
3177;SDS011;38141;42.666;23.344;2024-03-02T01:59:52;32.87;;;16.83;;
3177;SDS011;38141;42.666;23.344;2024-03-02T02:02:19;35.40;;;20.00;;
3177;SDS011;38141;42.666;23.344;2024-03-02T02:04:46;34.80;;;18.97;;
3177;SDS011;38141;42.666;23.344;2024-03-02T02:07:13;38.87;;;19.60;;
3177;SDS011;38141;42.666;23.344;2024-03-02T02:09:41;37.83;;;20.50;;
3177;SDS011;38141;42.666;23.344;2024-03-02T02:12:09;37.83;;;19.67;;
3177;SDS011;38141;42.666;23.344;2024-03-02T02:14:37;39.87;;;19.80;;
3177;SDS011;38141;42.666;23.344;2024-03-02T02:17:05;39.97;;;19.47;;
3177;SDS011;38141;42.666;23.344;2024-03-02T02:19:32;41.40;;;22.00;;
3177;SDS011;38141;42.666;23.344;2024-03-02T02:22:00;41.57;;;20.23;;
3177;SDS011;38141;42.666;23.344;2024-03-02T02:24:27;37.63;;;19.87;;
3177;SDS011;38141;42.666;23.344;2024-03-02T02:26:54;37.27;;;19.87;;
3177;SDS011;38141;42.666;23.344;2024-03-02T02:29:21;38.20;;;19.30;;
3177;SDS011;38141;42.666;23.344;2024-03-02T02:31:48;45.17;;;20.60;;
3177;SDS011;38141;42.666;23.344;2024-03-02T02:34:16;42.90;;;20.30;;
3177;SDS011;38141;42.666;23.344;2024-03-02T02:36:43;41.53;;;21.23;;
3177;SDS011;38141;42.666;23.344;2024-03-02T02:39:13;42.47;;;19.97;;
3177;SDS011;38141;42.666;23.344;2024-03-02T02:41:42;38.43;;;20.13;;
3177;SDS011;38141;42.666;23.344;2024-03-02T02:44:09;38.80;;;19.70;;
3177;SDS011;38141;42.666;23.344;2024-03-02T02:46:38;42.93;;;21.30;;
3177;SDS011;38141;42.666;23.344;2024-03-02T02:49:05;42.23;;;21.43;;
3177;SDS011;38141;42.666;23.344;2024-03-02T02:51:32;35.17;;;18.70;;
3177;SDS011;38141;42.666;23.344;2024-03-02T02:53:59;42.70;;;21.83;;
3177;SDS011;38141;42.666;23.344;2024-03-02T02:56:28;40.60;;;21.60;;
3177;SDS011;38141;42.666;23.344;2024-03-02T02:58:55;42.77;;;20.67;;
3177;SDS011;38141;42.666;23.344;2024-03-02T03:01:22;38.67;;;19.10;;
3177;SDS011;38141;42.666;23.344;2024-03-02T03:03:49;39.53;;;20.10;;
3177;SDS011;38141;42.666;23.344;2024-03-02T03:06:16;42.07;;;21.20;;
3177;SDS011;38141;42.666;23.344;2024-03-02T03:08:43;44.87;;;22.10;;
3177;SDS011;38141;42.666;23.344;2024-03-02T03:11:10;50.77;;;22.57;;
3177;SDS011;38141;42.666;23.344;2024-03-02T03:13:38;40.43;;;19.93;;
3177;SDS011;38141;42.666;23.344;2024-03-02T03:16:05;37.83;;;19.77;;
3177;SDS011;38141;42.666;23.344;2024-03-02T03:18:32;42.03;;;20.17;;
3177;SDS011;38141;42.666;23.344;2024-03-02T03:21:00;42.07;;;21.13;;
3177;SDS011;38141;42.666;23.344;2024-03-02T03:23:27;48.90;;;23.80;;
3177;SDS011;38141;42.666;23.344;2024-03-02T03:25:54;38.70;;;21.50;;
3177;SDS011;38141;42.666;23.344;2024-03-02T03:28:21;37.30;;;21.50;;
3177;SDS011;38141;42.666;23.344;2024-03-02T03:30:50;42.40;;;21.80;;
3177;SDS011;38141;42.666;23.344;2024-03-02T03:33:17;43.43;;;21.73;;
3177;SDS011;38141;42.666;23.344;2024-03-02T03:35:44;41.23;;;20.90;;
3177;SDS011;38141;42.666;23.344;2024-03-02T03:38:11;38.27;;;20.00;;
3177;SDS011;38141;42.666;23.344;2024-03-02T03:40:38;39.67;;;21.17;;
3177;SDS011;38141;42.666;23.344;2024-03-02T03:43:05;40.63;;;22.60;;
3177;SDS011;38141;42.666;23.344;2024-03-02T03:45:32;39.33;;;20.27;;
3177;SDS011;38141;42.666;23.344;2024-03-02T03:48:00;42.07;;;21.00;;
3177;SDS011;38141;42.666;23.344;2024-03-02T03:50:28;34.20;;;20.10;;
3177;SDS011;38141;42.666;23.344;2024-03-02T03:52:55;47.80;;;23.80;;
3177;SDS011;38141;42.666;23.344;2024-03-02T03:55:21;43.20;;;21.00;;
3177;SDS011;38141;42.666;23.344;2024-03-02T03:57:48;39.43;;;21.03;;
3177;SDS011;38141;42.666;23.344;2024-03-02T04:00:16;37.20;;;20.83;;
3177;SDS011;38141;42.666;23.344;2024-03-02T04:02:43;43.60;;;21.30;;
3177;SDS011;38141;42.666;23.344;2024-03-02T04:05:12;44.33;;;23.23;;
3177;SDS011;38141;42.666;23.344;2024-03-02T04:07:39;45.10;;;21.87;;
3177;SDS011;38141;42.666;23.344;2024-03-02T04:10:07;39.90;;;20.63;;
3177;SDS011;38141;42.666;23.344;2024-03-02T04:12:35;35.97;;;19.80;;
3177;SDS011;38141;42.666;23.344;2024-03-02T04:15:03;41.10;;;21.37;;
3177;SDS011;38141;42.666;23.344;2024-03-02T04:17:32;41.67;;;20.80;;
3177;SDS011;38141;42.666;23.344;2024-03-02T04:20:00;38.43;;;22.10;;
3177;SDS011;38141;42.666;23.344;2024-03-02T04:22:32;43.23;;;22.03;;
3177;SDS011;38141;42.666;23.344;2024-03-02T04:25:00;45.43;;;21.47;;
3177;SDS011;38141;42.666;23.344;2024-03-02T04:27:29;45.90;;;22.70;;
3177;SDS011;38141;42.666;23.344;2024-03-02T04:29:57;42.73;;;22.47;;
3177;SDS011;38141;42.666;23.344;2024-03-02T04:32:25;41.80;;;21.50;;
3177;SDS011;38141;42.666;23.344;2024-03-02T04:34:52;41.40;;;21.87;;
3177;SDS011;38141;42.666;23.344;2024-03-02T04:37:19;42.17;;;21.70;;
3177;SDS011;38141;42.666;23.344;2024-03-02T04:39:48;45.40;;;22.37;;
3177;SDS011;38141;42.666;23.344;2024-03-02T04:42:14;44.87;;;21.47;;
3177;SDS011;38141;42.666;23.344;2024-03-02T04:44:41;44.47;;;22.60;;
3177;SDS011;38141;42.666;23.344;2024-03-02T04:47:08;43.47;;;22.57;;
3177;SDS011;38141;42.666;23.344;2024-03-02T04:49:35;38.10;;;20.47;;
3177;SDS011;38141;42.666;23.344;2024-03-02T04:52:02;42.40;;;22.90;;
3177;SDS011;38141;42.666;23.344;2024-03-02T04:54:30;42.73;;;21.43;;
3177;SDS011;38141;42.666;23.344;2024-03-02T04:56:58;38.73;;;21.43;;
3177;SDS011;38141;42.666;23.344;2024-03-02T04:59:25;39.53;;;21.67;;
3177;SDS011;38141;42.666;23.344;2024-03-02T05:01:52;42.37;;;22.20;;
3177;SDS011;38141;42.666;23.344;2024-03-02T05:04:19;42.40;;;22.10;;
3177;SDS011;38141;42.666;23.344;2024-03-02T05:06:46;41.90;;;20.37;;
3177;SDS011;38141;42.666;23.344;2024-03-02T05:09:17;40.77;;;21.00;;
3177;SDS011;38141;42.666;23.344;2024-03-02T05:11:47;37.17;;;20.67;;
3177;SDS011;38141;42.666;23.344;2024-03-02T05:14:37;40.67;;;21.50;;
3177;SDS011;38141;42.666;23.344;2024-03-02T05:17:04;45.10;;;22.10;;
3177;SDS011;38141;42.666;23.344;2024-03-02T05:19:31;47.43;;;22.20;;
3177;SDS011;38141;42.666;23.344;2024-03-02T05:21:58;41.93;;;22.23;;
3177;SDS011;38141;42.666;23.344;2024-03-02T05:24:25;47.33;;;24.37;;
3177;SDS011;38141;42.666;23.344;2024-03-02T05:26:53;37.50;;;21.40;;
3177;SDS011;38141;42.666;23.344;2024-03-02T05:29:20;44.67;;;24.00;;
3177;SDS011;38141;42.666;23.344;2024-03-02T05:31:49;43.00;;;23.40;;
3177;SDS011;38141;42.666;23.344;2024-03-02T05:34:16;44.30;;;24.07;;
3177;SDS011;38141;42.666;23.344;2024-03-02T05:36:43;43.57;;;23.70;;
3177;SDS011;38141;42.666;23.344;2024-03-02T05:39:10;43.70;;;22.53;;
3177;SDS011;38141;42.666;23.344;2024-03-02T05:41:37;42.53;;;23.23;;
3177;SDS011;38141;42.666;23.344;2024-03-02T05:44:07;42.77;;;22.60;;
3177;SDS011;38141;42.666;23.344;2024-03-02T05:46:34;49.50;;;23.60;;
3177;SDS011;38141;42.666;23.344;2024-03-02T05:49:02;43.33;;;23.40;;
3177;SDS011;38141;42.666;23.344;2024-03-02T05:51:29;44.93;;;23.10;;
3177;SDS011;38141;42.666;23.344;2024-03-02T05:53:57;44.07;;;22.90;;
3177;SDS011;38141;42.666;23.344;2024-03-02T05:56:24;43.23;;;23.63;;
3177;SDS011;38141;42.666;23.344;2024-03-02T05:58:51;40.83;;;22.20;;
3177;SDS011;38141;42.666;23.344;2024-03-02T06:01:32;46.70;;;23.30;;
3177;SDS011;38141;42.666;23.344;2024-03-02T06:03:59;44.23;;;22.03;;
3177;SDS011;38141;42.666;23.344;2024-03-02T06:06:27;43.57;;;21.30;;
3177;SDS011;38141;42.666;23.344;2024-03-02T06:08:54;41.33;;;21.43;;
3177;SDS011;38141;42.666;23.344;2024-03-02T06:11:24;44.50;;;22.83;;
3177;SDS011;38141;42.666;23.344;2024-03-02T06:13:51;43.67;;;22.63;;
3177;SDS011;38141;42.666;23.344;2024-03-02T06:16:18;48.13;;;22.10;;
3177;SDS011;38141;42.666;23.344;2024-03-02T06:18:45;44.40;;;21.80;;
3177;SDS011;38141;42.666;23.344;2024-03-02T06:21:12;42.30;;;21.80;;
3177;SDS011;38141;42.666;23.344;2024-03-02T06:23:40;46.10;;;22.20;;
3177;SDS011;38141;42.666;23.344;2024-03-02T06:26:07;41.20;;;20.50;;
3177;SDS011;38141;42.666;23.344;2024-03-02T06:28:34;40.97;;;20.73;;
3177;SDS011;38141;42.666;23.344;2024-03-02T06:31:01;43.73;;;20.53;;
3177;SDS011;38141;42.666;23.344;2024-03-02T06:33:29;42.10;;;21.50;;
3177;SDS011;38141;42.666;23.344;2024-03-02T06:35:56;45.53;;;22.40;;
3177;SDS011;38141;42.666;23.344;2024-03-02T06:38:23;41.07;;;22.60;;
3177;SDS011;38141;42.666;23.344;2024-03-02T06:40:51;49.20;;;24.20;;
3177;SDS011;38141;42.666;23.344;2024-03-02T06:43:18;46.20;;;22.47;;
3177;SDS011;38141;42.666;23.344;2024-03-02T06:45:48;43.63;;;22.97;;
3177;SDS011;38141;42.666;23.344;2024-03-02T06:48:15;45.23;;;23.63;;
3177;SDS011;38141;42.666;23.344;2024-03-02T06:50:45;41.30;;;21.30;;
3177;SDS011;38141;42.666;23.344;2024-03-02T06:53:13;40.33;;;20.43;;
3177;SDS011;38141;42.666;23.344;2024-03-02T06:55:42;40.97;;;22.43;;
3177;SDS011;38141;42.666;23.344;2024-03-02T06:58:11;43.77;;;21.50;;
3177;SDS011;38141;42.666;23.344;2024-03-02T07:00:40;49.20;;;22.40;;
3177;SDS011;38141;42.666;23.344;2024-03-02T07:03:07;41.10;;;22.13;;
3177;SDS011;38141;42.666;23.344;2024-03-02T07:05:34;45.30;;;22.40;;
3177;SDS011;38141;42.666;23.344;2024-03-02T07:08:01;43.80;;;22.33;;
3177;SDS011;38141;42.666;23.344;2024-03-02T07:10:30;40.53;;;21.07;;
3177;SDS011;38141;42.666;23.344;2024-03-02T07:12:57;43.60;;;21.73;;
3177;SDS011;38141;42.666;23.344;2024-03-02T07:15:25;41.93;;;21.90;;
3177;SDS011;38141;42.666;23.344;2024-03-02T07:18:09;40.57;;;22.30;;
3177;SDS011;38141;42.666;23.344;2024-03-02T07:20:37;46.13;;;24.23;;
3177;SDS011;38141;42.666;23.344;2024-03-02T07:23:04;46.00;;;22.33;;
3177;SDS011;38141;42.666;23.344;2024-03-02T07:25:34;50.10;;;22.90;;
3177;SDS011;38141;42.666;23.344;2024-03-02T07:28:01;43.20;;;23.27;;
3177;SDS011;38141;42.666;23.344;2024-03-02T07:30:31;44.47;;;23.93;;
3177;SDS011;38141;42.666;23.344;2024-03-02T07:32:58;48.43;;;22.80;;
3177;SDS011;38141;42.666;23.344;2024-03-02T07:35:26;48.27;;;23.50;;
3177;SDS011;38141;42.666;23.344;2024-03-02T07:37:53;49.83;;;24.20;;
3177;SDS011;38141;42.666;23.344;2024-03-02T07:40:20;44.67;;;23.77;;
3177;SDS011;38141;42.666;23.344;2024-03-02T07:42:47;51.53;;;23.73;;
3177;SDS011;38141;42.666;23.344;2024-03-02T07:45:14;50.73;;;22.97;;
3177;SDS011;38141;42.666;23.344;2024-03-02T07:48:27;47.30;;;24.03;;
3177;SDS011;38141;42.666;23.344;2024-03-02T07:50:55;49.30;;;23.47;;
3177;SDS011;38141;42.666;23.344;2024-03-02T07:53:22;47.00;;;23.97;;
3177;SDS011;38141;42.666;23.344;2024-03-02T07:55:49;48.70;;;21.60;;
3177;SDS011;38141;42.666;23.344;2024-03-02T07:58:16;47.97;;;22.40;;
3177;SDS011;38141;42.666;23.344;2024-03-02T08:00:46;48.60;;;22.57;;
3177;SDS011;38141;42.666;23.344;2024-03-02T08:03:13;43.53;;;21.33;;
3177;SDS011;38141;42.666;23.344;2024-03-02T08:05:42;44.73;;;22.87;;
3177;SDS011;38141;42.666;23.344;2024-03-02T08:08:11;39.47;;;20.40;;
3177;SDS011;38141;42.666;23.344;2024-03-02T08:10:41;47.20;;;22.00;;
3177;SDS011;38141;42.666;23.344;2024-03-02T08:13:08;45.60;;;20.50;;
3177;SDS011;38141;42.666;23.344;2024-03-02T08:15:35;51.67;;;22.30;;
3177;SDS011;38141;42.666;23.344;2024-03-02T08:18:02;46.03;;;22.03;;
3177;SDS011;38141;42.666;23.344;2024-03-02T08:20:35;42.00;;;20.60;;
3177;SDS011;38141;42.666;23.344;2024-03-02T08:23:04;41.20;;;20.77;;
3177;SDS011;38141;42.666;23.344;2024-03-02T08:25:31;39.87;;;20.63;;
3177;SDS011;38141;42.666;23.344;2024-03-02T08:27:58;45.03;;;21.50;;
3177;SDS011;38141;42.666;23.344;2024-03-02T08:30:25;34.23;;;19.17;;
3177;SDS011;38141;42.666;23.344;2024-03-02T08:32:52;38.33;;;19.80;;
3177;SDS011;38141;42.666;23.344;2024-03-02T08:35:19;44.73;;;22.40;;
3177;SDS011;38141;42.666;23.344;2024-03-02T08:37:47;35.20;;;20.13;;
3177;SDS011;38141;42.666;23.344;2024-03-02T08:40:16;37.50;;;19.90;;
3177;SDS011;38141;42.666;23.344;2024-03-02T08:42:43;45.60;;;18.70;;
3177;SDS011;38141;42.666;23.344;2024-03-02T08:45:10;38.83;;;19.90;;
3177;SDS011;38141;42.666;23.344;2024-03-02T08:47:38;34.63;;;19.00;;
3177;SDS011;38141;42.666;23.344;2024-03-02T08:50:05;47.07;;;22.30;;
3177;SDS011;38141;42.666;23.344;2024-03-02T08:52:33;41.40;;;20.93;;
3177;SDS011;38141;42.666;23.344;2024-03-02T08:55:00;43.60;;;21.50;;
3177;SDS011;38141;42.666;23.344;2024-03-02T08:57:29;46.07;;;22.70;;
3177;SDS011;38141;42.666;23.344;2024-03-02T08:59:56;41.07;;;21.40;;
3177;SDS011;38141;42.666;23.344;2024-03-02T09:02:23;35.80;;;18.10;;
3177;SDS011;38141;42.666;23.344;2024-03-02T09:04:50;40.50;;;20.90;;
3177;SDS011;38141;42.666;23.344;2024-03-02T09:07:18;39.83;;;20.53;;
3177;SDS011;38141;42.666;23.344;2024-03-02T09:09:44;34.20;;;20.27;;
3177;SDS011;38141;42.666;23.344;2024-03-02T09:12:11;38.10;;;21.30;;
3177;SDS011;38141;42.666;23.344;2024-03-02T09:14:40;32.03;;;18.50;;
3177;SDS011;38141;42.666;23.344;2024-03-02T09:17:07;36.13;;;20.50;;
3177;SDS011;38141;42.666;23.344;2024-03-02T09:19:36;38.33;;;19.33;;
3177;SDS011;38141;42.666;23.344;2024-03-02T09:22:03;39.10;;;20.53;;
3177;SDS011;38141;42.666;23.344;2024-03-02T09:24:31;41.10;;;22.23;;
3177;SDS011;38141;42.666;23.344;2024-03-02T09:26:58;36.20;;;18.63;;
3177;SDS011;38141;42.666;23.344;2024-03-02T09:29:26;37.23;;;18.80;;
3177;SDS011;38141;42.666;23.344;2024-03-02T09:31:55;38.00;;;20.17;;
3177;SDS011;38141;42.666;23.344;2024-03-02T09:34:22;42.43;;;20.97;;
3177;SDS011;38141;42.666;23.344;2024-03-02T09:36:50;41.43;;;19.67;;
3177;SDS011;38141;42.666;23.344;2024-03-02T09:39:18;43.93;;;21.17;;
3177;SDS011;38141;42.666;23.344;2024-03-02T09:41:44;30.40;;;18.07;;
3177;SDS011;38141;42.666;23.344;2024-03-02T09:44:12;34.60;;;17.50;;
3177;SDS011;38141;42.666;23.344;2024-03-02T09:46:39;40.57;;;20.00;;
3177;SDS011;38141;42.666;23.344;2024-03-02T09:49:10;40.37;;;20.70;;
3177;SDS011;38141;42.666;23.344;2024-03-02T09:51:37;37.83;;;20.40;;
3177;SDS011;38141;42.666;23.344;2024-03-02T09:54:05;45.00;;;20.50;;
3177;SDS011;38141;42.666;23.344;2024-03-02T09:56:34;42.10;;;21.43;;
3177;SDS011;38141;42.666;23.344;2024-03-02T09:59:01;38.03;;;20.13;;
3177;SDS011;38141;42.666;23.344;2024-03-02T10:01:28;41.10;;;21.17;;
3177;SDS011;38141;42.666;23.344;2024-03-02T10:03:55;46.97;;;22.67;;
3177;SDS011;38141;42.666;23.344;2024-03-02T10:06:27;37.87;;;20.43;;
3177;SDS011;38141;42.666;23.344;2024-03-02T10:08:55;38.00;;;21.43;;
3177;SDS011;38141;42.666;23.344;2024-03-02T10:11:25;36.90;;;19.70;;
3177;SDS011;38141;42.666;23.344;2024-03-02T10:14:07;44.70;;;21.00;;
3177;SDS011;38141;42.666;23.344;2024-03-02T10:16:35;36.43;;;20.57;;
3177;SDS011;38141;42.666;23.344;2024-03-02T10:19:18;36.50;;;19.57;;
3177;SDS011;38141;42.666;23.344;2024-03-02T10:21:48;36.00;;;18.40;;
3177;SDS011;38141;42.666;23.344;2024-03-02T10:24:16;37.43;;;20.53;;
3177;SDS011;38141;42.666;23.344;2024-03-02T10:26:42;38.83;;;20.10;;
3177;SDS011;38141;42.666;23.344;2024-03-02T10:29:09;34.87;;;19.70;;
3177;SDS011;38141;42.666;23.344;2024-03-02T10:31:37;43.57;;;20.83;;
3177;SDS011;38141;42.666;23.344;2024-03-02T10:34:05;34.13;;;19.00;;
3177;SDS011;38141;42.666;23.344;2024-03-02T10:36:35;39.47;;;19.40;;
3177;SDS011;38141;42.666;23.344;2024-03-02T10:39:04;34.20;;;20.37;;
3177;SDS011;38141;42.666;23.344;2024-03-02T10:41:36;37.80;;;20.03;;
3177;SDS011;38141;42.666;23.344;2024-03-02T10:44:07;38.80;;;20.30;;
3177;SDS011;38141;42.666;23.344;2024-03-02T10:46:35;40.40;;;22.10;;
3177;SDS011;38141;42.666;23.344;2024-03-02T10:49:06;35.63;;;18.40;;
3177;SDS011;38141;42.666;23.344;2024-03-02T10:51:33;39.27;;;20.57;;
3177;SDS011;38141;42.666;23.344;2024-03-02T10:54:02;47.00;;;21.43;;
3177;SDS011;38141;42.666;23.344;2024-03-02T10:56:32;35.80;;;19.37;;
3177;SDS011;38141;42.666;23.344;2024-03-02T10:59:01;39.70;;;21.57;;
3177;SDS011;38141;42.666;23.344;2024-03-02T11:01:31;44.03;;;23.40;;
3177;SDS011;38141;42.666;23.344;2024-03-02T11:03:59;41.53;;;23.13;;
3177;SDS011;38141;42.666;23.344;2024-03-02T11:06:29;33.43;;;20.00;;
3177;SDS011;38141;42.666;23.344;2024-03-02T11:08:59;35.97;;;17.43;;
3177;SDS011;38141;42.666;23.344;2024-03-02T11:11:35;35.50;;;17.60;;
3177;SDS011;38141;42.666;23.344;2024-03-02T11:14:04;30.33;;;18.03;;
3177;SDS011;38141;42.666;23.344;2024-03-02T11:16:39;30.37;;;15.60;;
3177;SDS011;38141;42.666;23.344;2024-03-02T11:19:07;35.23;;;19.07;;
3177;SDS011;38141;42.666;23.344;2024-03-02T11:21:37;31.17;;;17.90;;
3177;SDS011;38141;42.666;23.344;2024-03-02T11:27:02;29.33;;;15.50;;
3177;SDS011;38141;42.666;23.344;2024-03-02T11:29:43;31.57;;;17.70;;
3177;SDS011;38141;42.666;23.344;2024-03-02T11:32:17;35.60;;;19.93;;
3177;SDS011;38141;42.666;23.344;2024-03-02T11:34:47;36.97;;;19.70;;
3177;SDS011;38141;42.666;23.344;2024-03-02T11:37:17;34.40;;;17.70;;
3177;SDS011;38141;42.666;23.344;2024-03-02T11:39:48;29.13;;;17.03;;
3177;SDS011;38141;42.666;23.344;2024-03-02T11:42:18;30.30;;;17.77;;
3177;SDS011;38141;42.666;23.344;2024-03-02T11:44:46;33.57;;;18.23;;
3177;SDS011;38141;42.666;23.344;2024-03-02T11:47:15;36.70;;;19.80;;
3177;SDS011;38141;42.666;23.344;2024-03-02T11:49:43;34.47;;;18.63;;
3177;SDS011;38141;42.666;23.344;2024-03-02T11:52:12;37.67;;;20.23;;
3177;SDS011;38141;42.666;23.344;2024-03-02T11:54:40;36.13;;;19.83;;
3177;SDS011;38141;42.666;23.344;2024-03-02T11:57:14;37.67;;;20.43;;
3177;SDS011;38141;42.666;23.344;2024-03-02T11:59:41;38.50;;;20.83;;
3177;SDS011;38141;42.666;23.344;2024-03-02T12:02:14;41.33;;;21.33;;
3177;SDS011;38141;42.666;23.344;2024-03-02T12:04:42;38.20;;;21.20;;
3177;SDS011;38141;42.666;23.344;2024-03-02T12:07:10;37.67;;;20.20;;
3177;SDS011;38141;42.666;23.344;2024-03-02T12:09:38;34.07;;;18.30;;
3177;SDS011;38141;42.666;23.344;2024-03-02T12:12:05;31.93;;;17.17;;
3177;SDS011;38141;42.666;23.344;2024-03-02T12:14:36;28.90;;;14.93;;
3177;SDS011;38141;42.666;23.344;2024-03-02T12:17:03;25.13;;;15.60;;
3177;SDS011;38141;42.666;23.344;2024-03-02T12:19:31;25.83;;;15.27;;
3177;SDS011;38141;42.666;23.344;2024-03-02T12:21:59;26.90;;;15.77;;
3177;SDS011;38141;42.666;23.344;2024-03-02T12:24:27;26.63;;;15.10;;
3177;SDS011;38141;42.666;23.344;2024-03-02T12:26:55;25.37;;;16.23;;
3177;SDS011;38141;42.666;23.344;2024-03-02T12:29:23;29.10;;;16.00;;
3177;SDS011;38141;42.666;23.344;2024-03-02T12:31:52;28.83;;;16.20;;
3177;SDS011;38141;42.666;23.344;2024-03-02T12:34:19;30.47;;;16.77;;
3177;SDS011;38141;42.666;23.344;2024-03-02T12:36:48;28.00;;;15.80;;
3177;SDS011;38141;42.666;23.344;2024-03-02T12:39:18;24.10;;;14.90;;
3177;SDS011;38141;42.666;23.344;2024-03-02T12:41:46;22.90;;;14.90;;
3177;SDS011;38141;42.666;23.344;2024-03-02T12:44:15;24.77;;;14.70;;
3177;SDS011;38141;42.666;23.344;2024-03-02T12:46:42;27.00;;;14.73;;
3177;SDS011;38141;42.666;23.344;2024-03-02T12:49:15;27.50;;;14.13;;
3177;SDS011;38141;42.666;23.344;2024-03-02T12:51:42;27.67;;;15.17;;
3177;SDS011;38141;42.666;23.344;2024-03-02T12:54:12;25.00;;;14.77;;
3177;SDS011;38141;42.666;23.344;2024-03-02T12:56:40;25.10;;;15.67;;
3177;SDS011;38141;42.666;23.344;2024-03-02T12:59:17;25.87;;;15.50;;
3177;SDS011;38141;42.666;23.344;2024-03-02T13:01:50;28.10;;;15.17;;
3177;SDS011;38141;42.666;23.344;2024-03-02T13:04:22;25.00;;;15.60;;
3177;SDS011;38141;42.666;23.344;2024-03-02T13:06:51;24.70;;;14.70;;
3177;SDS011;38141;42.666;23.344;2024-03-02T13:09:19;28.53;;;15.70;;
3177;SDS011;38141;42.666;23.344;2024-03-02T13:11:49;22.47;;;15.40;;
3177;SDS011;38141;42.666;23.344;2024-03-02T13:14:17;25.20;;;15.47;;
3177;SDS011;38141;42.666;23.344;2024-03-02T13:16:44;21.97;;;14.10;;
3177;SDS011;38141;42.666;23.344;2024-03-02T13:19:12;22.00;;;14.00;;
3177;SDS011;38141;42.666;23.344;2024-03-02T13:21:41;26.67;;;16.20;;
3177;SDS011;38141;42.666;23.344;2024-03-02T13:24:08;25.80;;;14.67;;
3177;SDS011;38141;42.666;23.344;2024-03-02T13:26:35;25.10;;;15.27;;
3177;SDS011;38141;42.666;23.344;2024-03-02T13:29:03;24.07;;;14.73;;
3177;SDS011;38141;42.666;23.344;2024-03-02T13:31:30;22.27;;;15.00;;
3177;SDS011;38141;42.666;23.344;2024-03-02T13:33:57;23.60;;;14.37;;
3177;SDS011;38141;42.666;23.344;2024-03-02T13:36:24;24.77;;;14.80;;
3177;SDS011;38141;42.666;23.344;2024-03-02T13:38:53;23.70;;;14.80;;
3177;SDS011;38141;42.666;23.344;2024-03-02T13:41:20;27.20;;;15.20;;
3177;SDS011;38141;42.666;23.344;2024-03-02T13:43:48;28.60;;;15.27;;
3177;SDS011;38141;42.666;23.344;2024-03-02T13:46:15;25.87;;;15.83;;
3177;SDS011;38141;42.666;23.344;2024-03-02T13:48:42;25.93;;;16.50;;
3177;SDS011;38141;42.666;23.344;2024-03-02T13:51:09;29.03;;;16.60;;
3177;SDS011;38141;42.666;23.344;2024-03-02T13:53:36;25.10;;;16.53;;
3177;SDS011;38141;42.666;23.344;2024-03-02T13:56:05;30.37;;;17.10;;
3177;SDS011;38141;42.666;23.344;2024-03-02T13:58:35;30.97;;;16.83;;
3177;SDS011;38141;42.666;23.344;2024-03-02T14:01:02;26.50;;;16.33;;
3177;SDS011;38141;42.666;23.344;2024-03-02T14:03:30;27.37;;;16.93;;
3177;SDS011;38141;42.666;23.344;2024-03-02T14:05:58;25.60;;;16.33;;
3177;SDS011;38141;42.666;23.344;2024-03-02T14:08:25;31.50;;;17.70;;
3177;SDS011;38141;42.666;23.344;2024-03-02T14:10:52;32.73;;;18.40;;
3177;SDS011;38141;42.666;23.344;2024-03-02T14:13:20;30.03;;;18.50;;
3177;SDS011;38141;42.666;23.344;2024-03-02T14:15:48;24.90;;;16.23;;
3177;SDS011;38141;42.666;23.344;2024-03-02T14:18:15;28.30;;;17.47;;
3177;SDS011;38141;42.666;23.344;2024-03-02T14:20:42;29.17;;;17.93;;
3177;SDS011;38141;42.666;23.344;2024-03-02T14:23:09;27.13;;;16.50;;
3177;SDS011;38141;42.666;23.344;2024-03-02T14:25:36;29.93;;;18.13;;
3177;SDS011;38141;42.666;23.344;2024-03-02T14:28:03;27.73;;;18.07;;
3177;SDS011;38141;42.666;23.344;2024-03-02T14:30:32;27.00;;;17.40;;
3177;SDS011;38141;42.666;23.344;2024-03-02T14:32:59;32.07;;;19.07;;